West Cornforth, United Kingdom
Current Conditions -  °F | °C
As of 8:20 AM on Monday 26 Jan 2015 (Local Time) from EGNV Reporting Station
Few Clouds Few Clouds  
Wind Chill: 38°   Ceiling: Unl
Heat Index: 45°   Visibility: 6mi
Dew Point: 34°   Wind: 13mph
Humidity: 66%   Direction: 270°W
Pressure: 30.09"   Gusts: NA
Location:  54.7°N, 1.52°W
Report Text: EGNV 260820Z 27011KT 9999 FEW035 07/01 Q1019
Loading
Personal Weather Stations






























Interactive Weather Map New forecast layout! Learn more

10-Day Weather Forecast

Advertisements
Track Severe Weather on mobile